createdAt,value
2017-12-06T00:00:42.812Z,7.12
2017-12-06T00:03:10.308Z,7.08
2017-12-06T00:05:37.824Z,7.14
2017-12-06T00:08:05.357Z,7.08
2017-12-06T00:10:32.859Z,7.04
2017-12-06T00:13:05.868Z,7.05
2017-12-06T00:15:38.863Z,7.07
2017-12-06T00:18:06.388Z,7.05
2017-12-06T00:20:33.903Z,7.09
2017-12-06T00:23:01.406Z,7.08
2017-12-06T00:25:28.889Z,7.08
2017-12-06T00:27:56.400Z,7.08
2017-12-06T00:30:23.912Z,7.09
2017-12-06T00:32:51.552Z,7.07
2017-12-06T00:35:19.044Z,7.09
2017-12-06T00:37:46.554Z,7.08
2017-12-06T00:40:14.041Z,7.08
2017-12-06T00:42:41.540Z,7.05
2017-12-06T00:45:09.036Z,7.05
2017-12-06T00:47:36.506Z,7.07
2017-12-06T00:50:04.005Z,7.11
2017-12-06T00:52:31.505Z,7.10
2017-12-06T00:54:58.979Z,7.07
2017-12-06T00:57:28.181Z,7.08
2017-12-06T00:59:55.670Z,7.12
2017-12-06T01:02:23.180Z,7.10
2017-12-06T01:04:50.663Z,7.07
2017-12-06T01:07:18.161Z,7.08
2017-12-06T01:09:45.646Z,7.12
2017-12-06T01:12:13.599Z,7.10
2017-12-06T01:14:41.108Z,7.12
2017-12-06T01:17:08.595Z,7.11
2017-12-06T01:19:36.066Z,7.11
2017-12-06T01:22:03.565Z,7.10
2017-12-06T01:24:31.056Z,7.11
2017-12-06T01:26:58.562Z,7.12
2017-12-06T01:29:26.064Z,7.08
2017-12-06T01:31:53.599Z,7.11
2017-12-06T01:34:21.078Z,7.10
2017-12-06T01:36:48.564Z,7.03
2017-12-06T01:39:16.076Z,7.04
2017-12-06T01:41:43.565Z,7.06
2017-12-06T01:44:11.115Z,7.09
2017-12-06T01:46:38.613Z,7.06
2017-12-06T01:49:06.106Z,7.06
2017-12-06T01:51:33.593Z,7.04
2017-12-06T01:54:01.089Z,7.09
2017-12-06T01:56:28.609Z,7.07
2017-12-06T01:58:56.101Z,7.04
2017-12-06T02:01:23.574Z,7.08
2017-12-06T02:03:51.064Z,7.03
2017-12-06T02:06:18.581Z,7.04
2017-12-06T02:08:46.085Z,7.02
2017-12-06T02:11:13.579Z,7.03
2017-12-06T02:13:41.079Z,7.05
2017-12-06T02:16:08.576Z,7.06
2017-12-06T02:18:36.047Z,7.10
2017-12-06T02:21:03.580Z,7.11
2017-12-06T02:23:31.072Z,7.07
2017-12-06T02:25:58.545Z,7.04
2017-12-06T02:28:26.068Z,7.10
2017-12-06T02:30:53.564Z,7.08
2017-12-06T02:33:21.061Z,7.10
2017-12-06T02:35:48.571Z,7.11
2017-12-06T02:38:16.077Z,7.16
2017-12-06T02:40:55.225Z,7.15
2017-12-06T02:43:34.399Z,7.15
2017-12-06T02:46:01.884Z,7.17
2017-12-06T02:48:29.385Z,7.14
2017-12-06T02:50:56.902Z,7.17
2017-12-06T02:53:24.381Z,7.19
2017-12-06T02:55:51.881Z,7.17
2017-12-06T02:58:19.346Z,7.15
2017-12-06T03:00:46.840Z,7.15
2017-12-06T03:03:14.321Z,7.17
2017-12-06T03:05:41.795Z,7.19
2017-12-06T03:08:09.297Z,7.13
2017-12-06T03:10:36.795Z,7.12
2017-12-06T03:13:04.291Z,7.10
2017-12-06T03:15:31.778Z,7.10
2017-12-06T03:17:59.272Z,7.14
2017-12-06T03:20:26.760Z,7.14
2017-12-06T03:22:54.252Z,7.12
2017-12-06T03:25:21.729Z,7.14
2017-12-06T03:27:50.299Z,7.12
2017-12-06T03:30:17.771Z,7.08
2017-12-06T03:32:45.264Z,7.12
2017-12-06T03:35:12.752Z,7.09
2017-12-06T03:37:40.241Z,7.11
2017-12-06T03:40:07.764Z,7.07
2017-12-06T03:42:35.256Z,7.07
2017-12-06T03:45:02.735Z,7.10
2017-12-06T03:47:30.238Z,7.08
2017-12-06T03:49:57.734Z,7.10
2017-12-06T03:52:25.237Z,7.10
2017-12-06T03:54:52.726Z,7.11
2017-12-06T03:57:20.208Z,7.09
2017-12-06T03:59:47.690Z,7.09
2017-12-06T04:02:15.187Z,7.04
2017-12-06T04:04:42.753Z,7.09
2017-12-06T04:07:10.276Z,7.06
2017-12-06T04:09:37.926Z,7.09
2017-12-06T04:12:05.453Z,7.06
2017-12-06T04:14:32.972Z,7.08
2017-12-06T04:17:00.457Z,7.01
2017-12-06T04:19:27.938Z,7.06
2017-12-06T04:21:55.434Z,7.03
2017-12-06T04:24:22.926Z,6.97
2017-12-06T04:26:50.428Z,7.00
2017-12-06T04:29:17.940Z,6.99
2017-12-06T04:31:45.432Z,6.92
2017-12-06T04:34:12.936Z,6.96
2017-12-06T04:36:40.441Z,6.99
2017-12-06T04:39:07.948Z,6.90
2017-12-06T04:41:35.465Z,6.93
2017-12-06T04:44:02.991Z,6.94
2017-12-06T04:46:30.503Z,6.90
2017-12-06T04:48:57.981Z,6.86
2017-12-06T04:51:25.490Z,6.91
2017-12-06T04:53:52.965Z,6.92
2017-12-06T04:56:20.460Z,6.93
2017-12-06T04:58:47.964Z,6.93
2017-12-06T05:01:15.456Z,6.91
2017-12-06T05:03:42.980Z,6.89
2017-12-06T05:06:10.467Z,6.89
2017-12-06T05:08:38.024Z,6.86
2017-12-06T05:11:05.511Z,6.88
2017-12-06T05:13:33.024Z,6.88
2017-12-06T05:16:00.496Z,6.93
2017-12-06T05:18:28.000Z,6.90
2017-12-06T05:20:55.714Z,6.88
2017-12-06T05:23:23.189Z,6.87
2017-12-06T05:25:50.694Z,6.92
2017-12-06T05:28:18.169Z,6.96
2017-12-06T05:30:45.668Z,6.94
2017-12-06T05:33:13.174Z,6.95
2017-12-06T05:35:40.662Z,7.00
2017-12-06T05:38:08.147Z,6.98
2017-12-06T05:40:35.646Z,6.98
2017-12-06T05:43:03.131Z,6.97
2017-12-06T05:45:31.624Z,7.04
2017-12-06T05:47:59.124Z,7.00
2017-12-06T05:50:26.633Z,7.12
2017-12-06T05:52:54.119Z,7.01
2017-12-06T05:55:21.645Z,7.00
2017-12-06T05:57:49.181Z,7.08
2017-12-06T06:00:16.701Z,7.04
2017-12-06T06:02:44.212Z,7.07
2017-12-06T06:05:11.712Z,7.09
2017-12-06T06:07:39.195Z,7.02
2017-12-06T06:10:06.682Z,7.00
2017-12-06T06:12:34.170Z,6.96
2017-12-06T06:15:01.636Z,6.97
2017-12-06T06:17:29.124Z,6.93
2017-12-06T06:19:56.606Z,6.98
2017-12-06T06:22:24.117Z,6.94
2017-12-06T06:24:51.636Z,6.98
2017-12-06T06:27:19.123Z,6.96
2017-12-06T06:29:46.620Z,6.94
2017-12-06T06:32:14.489Z,6.95
2017-12-06T06:34:42.012Z,6.94
2017-12-06T06:37:09.504Z,6.90
2017-12-06T06:39:37.011Z,6.86
2017-12-06T06:42:04.491Z,6.91
2017-12-06T06:44:32.040Z,6.88
2017-12-06T06:46:59.548Z,6.86
2017-12-06T06:49:27.071Z,6.91
2017-12-06T06:51:54.569Z,6.90
2017-12-06T06:54:22.037Z,6.90
2017-12-06T06:56:49.516Z,6.90
2017-12-06T06:59:17.021Z,6.89
2017-12-06T07:01:44.514Z,6.91
2017-12-06T07:04:12.021Z,6.91
2017-12-06T07:06:39.516Z,6.91
2017-12-06T07:09:07.022Z,6.90
2017-12-06T07:11:34.533Z,6.88
2017-12-06T07:14:02.028Z,6.91
2017-12-06T07:16:29.510Z,6.91
2017-12-06T07:18:57.037Z,6.88
2017-12-06T07:21:24.606Z,6.89
2017-12-06T07:23:52.117Z,6.91
2017-12-06T07:26:19.632Z,6.95
2017-12-06T07:28:47.129Z,6.94
2017-12-06T07:31:14.628Z,6.94
2017-12-06T07:33:44.928Z,6.95
2017-12-06T07:36:12.403Z,6.95
2017-12-06T07:38:39.910Z,6.99
2017-12-06T07:41:07.386Z,6.94
2017-12-06T07:43:34.890Z,6.94
2017-12-06T07:46:02.407Z,6.89
2017-12-06T07:48:29.910Z,6.95
2017-12-06T07:50:57.422Z,6.93
2017-12-06T07:53:24.948Z,6.95
2017-12-06T07:55:52.438Z,6.96
2017-12-06T07:58:25.470Z,6.95
2017-12-06T08:00:52.996Z,6.94
2017-12-06T08:03:20.479Z,6.97
2017-12-06T08:05:47.977Z,6.94
2017-12-06T08:08:15.469Z,6.96
2017-12-06T08:10:43.012Z,6.98
2017-12-06T08:13:10.486Z,6.97
2017-12-06T08:15:38.000Z,6.98
2017-12-06T08:18:05.500Z,6.97
2017-12-06T08:20:32.982Z,7.00
2017-12-06T08:23:00.450Z,6.96
2017-12-06T08:25:27.969Z,6.96
2017-12-06T08:27:55.454Z,6.99
2017-12-06T08:30:22.937Z,7.00
2017-12-06T08:32:50.424Z,6.98
2017-12-06T08:35:17.924Z,7.03
2017-12-06T08:37:45.416Z,7.00
2017-12-06T08:40:13.090Z,7.02
2017-12-06T08:42:40.596Z,7.01
2017-12-06T08:45:08.069Z,7.03
2017-12-06T08:47:35.562Z,7.04
2017-12-06T08:50:03.111Z,7.03
2017-12-06T08:52:30.608Z,7.03
2017-12-06T08:54:58.093Z,7.06
2017-12-06T08:57:25.968Z,7.08
2017-12-06T08:59:53.458Z,7.06
2017-12-06T09:02:20.956Z,7.10
2017-12-06T09:04:48.803Z,7.04
2017-12-06T09:07:16.301Z,7.03
2017-12-06T09:09:43.777Z,7.07
2017-12-06T09:12:11.280Z,7.09
2017-12-06T09:14:38.745Z,7.04
2017-12-06T09:17:06.232Z,7.06
2017-12-06T09:19:33.727Z,7.14
2017-12-06T09:22:01.216Z,7.10
2017-12-06T09:24:28.716Z,7.14
2017-12-06T09:26:56.207Z,7.12
2017-12-06T09:29:23.683Z,7.13
2017-12-06T09:31:51.168Z,7.18
2017-12-06T09:34:18.644Z,7.16
2017-12-06T09:36:46.117Z,7.20
2017-12-06T09:39:14.392Z,7.23
2017-12-06T09:41:41.874Z,7.22
2017-12-06T09:44:09.347Z,7.16
2017-12-06T09:46:36.853Z,7.19
2017-12-06T09:49:04.322Z,7.21
2017-12-06T09:51:31.824Z,7.20
2017-12-06T09:53:59.306Z,7.20
2017-12-06T09:56:26.793Z,7.25
2017-12-06T09:58:54.292Z,7.22
2017-12-06T10:01:21.793Z,7.26
2017-12-06T10:03:49.292Z,7.27
2017-12-06T10:06:16.769Z,7.30
2017-12-06T10:08:44.248Z,7.29
2017-12-06T10:11:11.747Z,7.27
2017-12-06T10:13:39.256Z,7.30
2017-12-06T10:16:06.765Z,7.33
2017-12-06T10:18:34.276Z,7.30
2017-12-06T10:21:01.762Z,7.33
2017-12-06T10:23:29.256Z,7.31
2017-12-06T10:25:56.745Z,7.34
2017-12-06T10:28:24.303Z,7.35
2017-12-06T10:30:51.786Z,7.34
2017-12-06T10:33:19.283Z,7.36
2017-12-06T10:35:46.789Z,7.38
2017-12-06T10:38:14.313Z,7.38
2017-12-06T10:40:41.803Z,7.38
2017-12-06T10:43:09.278Z,7.34
2017-12-06T10:45:36.774Z,7.36
2017-12-06T10:48:04.288Z,7.40
2017-12-06T10:50:31.793Z,7.39
2017-12-06T10:52:59.298Z,7.43
2017-12-06T10:55:26.790Z,7.45
2017-12-06T10:57:54.280Z,7.40
2017-12-06T11:00:21.769Z,7.41
2017-12-06T11:02:49.253Z,7.39
2017-12-06T11:05:16.773Z,7.43
2017-12-06T11:07:44.271Z,7.48
2017-12-06T11:10:11.750Z,7.49
2017-12-06T11:12:39.260Z,7.51
2017-12-06T11:15:06.772Z,7.49
2017-12-06T11:17:34.276Z,7.49
2017-12-06T11:20:01.746Z,7.54
2017-12-06T11:22:29.233Z,7.51
2017-12-06T11:24:56.748Z,7.49
2017-12-06T11:27:24.233Z,7.53
2017-12-06T11:29:51.765Z,7.52
2017-12-06T11:32:19.272Z,7.52
2017-12-06T11:34:46.769Z,7.56
2017-12-06T11:37:14.260Z,7.54
2017-12-06T11:39:41.738Z,7.55
2017-12-06T11:42:09.218Z,7.56
2017-12-06T11:44:36.698Z,7.53
2017-12-06T11:47:04.193Z,7.54
2017-12-06T11:49:31.715Z,7.55
2017-12-06T11:51:59.248Z,7.57
2017-12-06T11:54:26.740Z,7.60
2017-12-06T11:56:54.218Z,7.59
2017-12-06T11:59:21.698Z,7.59
2017-12-06T12:01:49.212Z,7.63
2017-12-06T12:04:16.699Z,7.57
2017-12-06T12:06:44.219Z,7.58
2017-12-06T12:09:11.748Z,7.62
2017-12-06T12:11:39.234Z,7.68
2017-12-06T12:14:06.713Z,7.63
2017-12-06T12:16:34.204Z,7.67
2017-12-06T12:19:01.706Z,7.69
2017-12-06T12:21:29.212Z,7.66
2017-12-06T12:23:56.718Z,7.68
2017-12-06T12:26:24.205Z,7.72
2017-12-06T12:28:51.694Z,7.67
2017-12-06T12:31:19.193Z,7.69
2017-12-06T12:33:46.674Z,7.72
2017-12-06T12:36:14.210Z,7.72
2017-12-06T12:38:41.691Z,7.70
2017-12-06T12:41:09.169Z,7.71
2017-12-06T12:43:36.695Z,7.74
2017-12-06T12:46:04.999Z,7.74
2017-12-06T12:48:32.484Z,7.75
2017-12-06T12:50:59.981Z,7.76
2017-12-06T12:53:27.493Z,7.76
2017-12-06T12:55:54.989Z,7.70
2017-12-06T12:58:22.710Z,7.71
2017-12-06T13:00:50.199Z,7.72
2017-12-06T13:03:17.692Z,7.71
2017-12-06T13:05:45.201Z,7.72
2017-12-06T13:08:12.672Z,7.72
2017-12-06T13:10:40.170Z,7.69
2017-12-06T13:13:07.669Z,7.73
2017-12-06T13:15:35.154Z,7.69
2017-12-06T13:18:02.645Z,7.70
2017-12-06T13:20:30.157Z,7.72
2017-12-06T13:22:57.626Z,7.75
2017-12-06T13:25:25.117Z,7.69
2017-12-06T13:27:52.616Z,7.67
2017-12-06T13:30:20.121Z,7.69
2017-12-06T13:32:47.600Z,7.69
2017-12-06T13:35:15.115Z,7.68
2017-12-06T13:37:42.599Z,7.70
2017-12-06T13:40:10.081Z,7.69
2017-12-06T13:42:37.592Z,7.68
2017-12-06T13:45:05.157Z,7.72
2017-12-06T13:47:32.661Z,7.68
2017-12-06T13:50:00.272Z,7.74
2017-12-06T13:52:27.832Z,7.64
2017-12-06T13:54:55.314Z,7.66
2017-12-06T13:57:22.846Z,7.67
2017-12-06T13:59:50.355Z,7.66
2017-12-06T14:02:17.877Z,7.67
2017-12-06T14:04:45.346Z,7.66
2017-12-06T14:07:12.911Z,7.65
2017-12-06T14:09:40.412Z,7.65
2017-12-06T14:12:07.899Z,7.67
2017-12-06T14:14:35.378Z,7.64
2017-12-06T14:17:02.863Z,7.65
2017-12-06T14:19:30.380Z,7.65
2017-12-06T14:21:57.982Z,7.65
2017-12-06T14:24:25.507Z,7.65
2017-12-06T14:26:52.992Z,7.69
2017-12-06T14:29:20.491Z,7.61
2017-12-06T14:31:48.107Z,7.63
2017-12-06T14:34:15.631Z,7.63
2017-12-06T14:36:43.121Z,7.64
2017-12-06T14:39:10.579Z,7.61
2017-12-06T14:41:38.073Z,7.64
2017-12-06T14:44:05.573Z,7.61
2017-12-06T14:46:33.226Z,7.64
2017-12-06T14:49:00.721Z,7.58
2017-12-06T14:51:28.533Z,7.61
2017-12-06T14:53:56.008Z,7.64
2017-12-06T14:56:23.773Z,7.63
2017-12-06T14:58:51.244Z,7.64
2017-12-06T15:01:18.930Z,7.66
2017-12-06T15:03:46.413Z,7.67
2017-12-06T15:06:13.949Z,7.70
2017-12-06T15:08:41.464Z,7.68
2017-12-06T15:11:08.967Z,7.68
2017-12-06T15:13:36.462Z,7.66
2017-12-06T15:16:03.965Z,7.64
2017-12-06T15:18:31.466Z,7.64
2017-12-06T15:20:58.954Z,7.71
2017-12-06T15:23:26.618Z,7.65
2017-12-06T15:25:54.101Z,7.67
2017-12-06T15:28:21.566Z,7.69
2017-12-06T15:30:49.052Z,7.71
2017-12-06T15:33:16.549Z,7.75
2017-12-06T15:35:44.052Z,7.75
2017-12-06T15:38:11.521Z,7.70
2017-12-06T15:40:41.043Z,7.63
2017-12-06T15:43:08.510Z,7.65
2017-12-06T15:45:36.011Z,7.73
2017-12-06T15:48:03.508Z,7.68
2017-12-06T15:50:30.999Z,7.74
2017-12-06T15:52:58.470Z,7.73
2017-12-06T15:55:25.954Z,7.77
2017-12-06T15:57:53.493Z,7.77
2017-12-06T16:00:21.034Z,7.71
2017-12-06T16:02:48.493Z,7.69
2017-12-06T16:05:15.985Z,7.80
2017-12-06T16:07:43.467Z,7.83
2017-12-06T16:10:11.017Z,7.79
2017-12-06T16:12:38.544Z,7.81
2017-12-06T16:15:07.568Z,7.80
2017-12-06T16:17:35.129Z,7.81
2017-12-06T16:20:02.694Z,7.81
2017-12-06T16:22:30.187Z,7.86
2017-12-06T16:24:57.681Z,7.87
2017-12-06T16:27:25.678Z,7.90
2017-12-06T16:29:53.220Z,7.86
2017-12-06T16:32:20.751Z,7.85
2017-12-06T16:35:00.062Z,7.85
2017-12-06T16:37:31.853Z,7.82
2017-12-06T16:39:59.403Z,7.89
2017-12-06T16:42:27.221Z,7.83
2017-12-06T16:44:54.878Z,7.86
2017-12-06T16:47:22.767Z,7.87
2017-12-06T16:49:50.240Z,7.90
2017-12-06T16:52:18.190Z,7.88
2017-12-06T16:54:46.389Z,7.87
2017-12-06T16:57:13.868Z,7.92
2017-12-06T16:59:41.495Z,7.91
2017-12-06T17:02:09.040Z,7.94
2017-12-06T17:04:36.525Z,7.91
2017-12-06T17:07:04.050Z,7.92
2017-12-06T17:09:31.538Z,7.93
2017-12-06T17:11:59.038Z,7.92
2017-12-06T17:14:26.533Z,7.92
2017-12-06T17:16:54.036Z,7.93
2017-12-06T17:19:21.631Z,7.89
2017-12-06T17:21:49.105Z,7.96
2017-12-06T17:24:16.570Z,7.92
2017-12-06T17:26:44.106Z,7.92
2017-12-06T17:29:24.287Z,7.92
2017-12-06T17:31:51.961Z,7.89
2017-12-06T17:34:20.934Z,7.89
2017-12-06T17:36:48.477Z,7.94
2017-12-06T17:39:16.834Z,7.91
2017-12-06T17:41:49.270Z,7.94
2017-12-06T17:44:17.544Z,7.92
2017-12-06T17:46:45.018Z,7.95
2017-12-06T17:49:13.469Z,7.95
2017-12-06T17:51:40.977Z,8.00
2017-12-06T17:54:08.474Z,8.00
2017-12-06T17:56:36.018Z,8.01
2017-12-06T17:59:03.523Z,8.02
2017-12-06T18:01:31.022Z,8.02
2017-12-06T18:03:58.504Z,8.08
2017-12-06T18:06:25.996Z,8.05
2017-12-06T18:08:53.487Z,8.06
2017-12-06T18:11:20.973Z,8.11
2017-12-06T18:13:48.470Z,8.08
2017-12-06T18:16:15.974Z,8.12
2017-12-06T18:18:43.447Z,8.14
2017-12-06T18:21:10.960Z,8.12
2017-12-06T18:23:38.529Z,8.12
2017-12-06T18:26:05.993Z,8.14
2017-12-06T18:28:33.478Z,8.14
2017-12-06T18:31:00.981Z,8.13
2017-12-06T18:33:28.508Z,8.12
2017-12-06T18:35:56.026Z,8.13
2017-12-06T18:38:23.661Z,8.15
2017-12-06T18:40:51.160Z,8.15
2017-12-06T18:43:18.680Z,8.13
2017-12-06T18:45:46.185Z,8.14
2017-12-06T18:48:13.676Z,8.14
2017-12-06T18:50:41.176Z,8.16
2017-12-06T18:53:08.730Z,8.13
2017-12-06T18:55:36.212Z,8.16
2017-12-06T18:58:03.726Z,8.13
2017-12-06T19:00:31.216Z,8.14
2017-12-06T19:02:58.698Z,8.14
2017-12-06T19:05:26.202Z,8.13
2017-12-06T19:07:53.688Z,8.13
2017-12-06T19:10:21.159Z,8.14
2017-12-06T19:12:48.626Z,8.14
2017-12-06T19:15:16.125Z,8.14
2017-12-06T19:17:43.642Z,8.16
2017-12-06T19:20:11.138Z,8.20
2017-12-06T19:22:38.730Z,8.18
2017-12-06T19:25:06.218Z,8.16
2017-12-06T19:27:33.678Z,8.18
2017-12-06T19:30:01.208Z,8.19
2017-12-06T19:32:28.682Z,8.19
2017-12-06T19:34:56.190Z,8.18
2017-12-06T19:37:23.766Z,8.22
2017-12-06T19:39:52.196Z,8.23
2017-12-06T19:42:23.778Z,8.20
2017-12-06T19:44:51.304Z,8.18
2017-12-06T19:47:18.791Z,8.21
2017-12-06T19:49:47.716Z,8.22
2017-12-06T19:52:30.129Z,8.22
2017-12-06T19:54:57.856Z,8.26
2017-12-06T19:57:39.986Z,8.22
2017-12-06T20:00:07.621Z,8.21
2017-12-06T20:02:42.182Z,8.16
2017-12-06T20:05:13.611Z,8.14
2017-12-06T20:07:41.795Z,8.17
2017-12-06T20:10:17.688Z,8.20
2017-12-06T20:12:45.332Z,8.13
2017-12-06T20:15:18.797Z,8.14
2017-12-06T20:17:46.461Z,8.09
2017-12-06T20:20:14.149Z,8.08
2017-12-06T20:22:43.242Z,8.10
2017-12-06T20:25:13.235Z,8.12
2017-12-06T20:27:43.454Z,8.13
2017-12-06T20:30:11.018Z,8.14
2017-12-06T20:32:38.532Z,8.17
2017-12-06T20:35:06.244Z,8.11
2017-12-06T20:37:33.738Z,8.12
2017-12-06T20:40:02.248Z,8.14
2017-12-06T20:42:29.814Z,8.12
2017-12-06T20:44:57.897Z,8.16
2017-12-06T20:47:25.366Z,8.18
2017-12-06T20:49:52.881Z,8.15
2017-12-06T20:52:20.400Z,8.21
2017-12-06T20:54:47.892Z,8.22
2017-12-06T20:57:15.426Z,8.18
2017-12-06T20:59:42.905Z,8.22
2017-12-06T21:02:10.400Z,8.21
2017-12-06T21:04:37.916Z,8.29
2017-12-06T21:07:05.453Z,8.25
2017-12-06T21:09:32.930Z,8.17
2017-12-06T21:12:00.438Z,8.25
2017-12-06T21:14:27.912Z,8.21
2017-12-06T21:16:55.428Z,8.19
2017-12-06T21:19:22.936Z,8.21
2017-12-06T21:21:50.415Z,8.17
2017-12-06T21:24:17.905Z,8.23
2017-12-06T21:26:45.982Z,8.21
2017-12-06T21:29:13.469Z,8.22
2017-12-06T21:31:40.960Z,8.17
2017-12-06T21:34:08.492Z,8.21
2017-12-06T21:36:36.013Z,8.19
2017-12-06T21:39:03.486Z,8.23
2017-12-06T21:41:31.017Z,8.23
2017-12-06T21:43:58.537Z,8.26
2017-12-06T21:46:26.103Z,8.22
2017-12-06T21:48:53.619Z,8.20
2017-12-06T21:51:21.262Z,8.21
2017-12-06T21:53:48.805Z,8.20
2017-12-06T21:56:16.276Z,8.27
2017-12-06T21:58:43.768Z,8.19
2017-12-06T22:01:11.261Z,8.26
2017-12-06T22:03:38.730Z,8.15
2017-12-06T22:06:07.319Z,8.21
2017-12-06T22:08:34.812Z,8.23
2017-12-06T22:11:02.315Z,8.21
2017-12-06T22:13:29.898Z,8.20
2017-12-06T22:15:57.390Z,8.21
2017-12-06T22:18:24.875Z,8.18
2017-12-06T22:20:52.439Z,8.19
2017-12-06T22:23:20.050Z,8.16
2017-12-06T22:25:47.620Z,8.19
2017-12-06T22:28:18.006Z,8.16
2017-12-06T22:30:45.516Z,8.15
2017-12-06T22:33:13.040Z,8.17
2017-12-06T22:35:40.517Z,8.17
2017-12-06T22:38:08.025Z,8.20
2017-12-06T22:40:35.511Z,8.13
2017-12-06T22:43:03.098Z,8.16
2017-12-06T22:45:30.741Z,8.17
2017-12-06T22:47:58.216Z,8.24
2017-12-06T22:50:25.706Z,8.16
2017-12-06T22:52:53.209Z,8.12
2017-12-06T22:55:20.702Z,8.13
2017-12-06T22:57:48.197Z,8.14
2017-12-06T23:00:15.698Z,8.06
2017-12-06T23:02:43.317Z,8.12
2017-12-06T23:05:10.935Z,8.11
2017-12-06T23:07:38.495Z,8.09
2017-12-06T23:10:06.087Z,8.07
2017-12-06T23:12:33.564Z,8.08
2017-12-06T23:15:01.189Z,8.05
2017-12-06T23:17:28.718Z,8.09
2017-12-06T23:19:56.198Z,8.10
2017-12-06T23:22:23.748Z,8.10
2017-12-06T23:24:51.223Z,8.08
2017-12-06T23:27:18.758Z,8.05
2017-12-06T23:29:46.262Z,8.08
2017-12-06T23:32:13.819Z,8.09
2017-12-06T23:34:41.451Z,8.09
2017-12-06T23:37:08.957Z,8.06
2017-12-06T23:39:36.517Z,8.12
2017-12-06T23:42:04.007Z,8.10
2017-12-06T23:44:31.551Z,8.11
2017-12-06T23:46:59.051Z,8.10
2017-12-06T23:49:27.291Z,8.10
2017-12-06T23:51:54.804Z,8.09
2017-12-06T23:54:22.650Z,8.09
2017-12-06T23:56:50.155Z,8.11
2017-12-06T23:59:19.034Z,8.06
